CST,Max TemperatureF,Mean TemperatureF,Min TemperatureF,Max Dew PointF,MeanDew PointF,Min DewpointF,Max Humidity, Mean Humidity, Min Humidity, Max Sea Level PressureIn, Mean Sea Level PressureIn, Min Sea Level PressureIn, Max VisibilityMiles, Mean VisibilityMiles, Min VisibilityMiles, Max Wind SpeedMPH, Mean Wind SpeedMPH, Max Gust SpeedMPH,PrecipitationIn, CloudCover, Events, WindDirDegrees
2012-1-1,60,52,44,30,26,23,58,38,24,30.62,30.48,30.22,10,10,10,15,10,24,0.00,0,,354
2012-1-2,57,46,34,25,23,20,67,43,24,30.75,30.66,30.62,10,10,10,14,6,20,0.00,0,,7
2012-1-3,61,46,30,26,23,21,76,45,22,30.62,30.45,30.26,10,10,10,15,5,23,0.00,0,,177
2012-1-4,64,52,39,35,33,30,79,52,29,30.34,30.28,30.21,10,10,10,7,4,,0.00,0,,310
2012-1-5,66,52,37,47,39,31,80,64,40,30.36,30.25,30.11,10,10,9,6,1,,0.00,1,,240
2012-1-6,72,61,50,52,49,41,96,74,36,30.11,30.01,29.89,10,8,3,17,4,25,0.00,3,,199
2012-1-7,64,54,44,52,39,33,93,62,33,30.08,30.01,29.92,10,10,7,9,5,,0.00,0,,311
2012-1-8,60,54,48,47,44,39,80,67,55,30.09,30.03,29.99,10,9,4,13,6,20,0.02,6,Rain,50
2012-1-9,51,45,39,48,44,37,94,91,87,30.10,30.05,29.99,10,4,0,20,12,34,0.14,8,Fog-Rain-Thunderstorm,343
2012-1-10,54,46,39,38,35,30,93,72,40,30.07,29.99,29.90,10,10,4,20,10,30,0.00,4,,300
2012-1-11,75,58,41,39,34,30,73,48,19,29.99,29.81,29.65,10,10,10,25,9,37,0.00,0,,282
2012-1-12,34,38,30,31,15,4,65,41,18,30.34,30.23,30.02,10,10,10,20,13,29,0.00,1,,329
2012-1-13,54,44,33,24,21,18,67,49,24,30.36,30.30,30.25,10,10,10,9,3,,0.00,0,,274
2012-1-14,64,46,28,27,23,20,75,46,18,30.42,30.33,30.29,10,10,9,10,2,,0.00,0,,213
2012-1-15,61,48,36,56,42,25,86,67,59,30.32,30.24,30.15,10,10,10,15,5,23,0.00,5,,182
2012-1-16,69,64,60,61,58,57,94,82,68,30.14,30.03,29.94,10,9,6,20,10,28,0.00,6,,185
2012-1-17,66,52,39,62,45,24,94,66,33,30.32,30.12,29.94,10,8,4,16,7,25,0.00,2,,355
2012-1-18,64,48,33,38,27,19,68,48,28,30.33,30.20,30.01,10,10,10,10,6,18,0.00,0,,148
2012-1-19,80,62,44,47,40,31,83,55,17,30.01,29.91,29.83,10,10,8,12,4,21,0.00,0,,228
2012-1-20,80,65,50,58,52,44,100,83,40,29.87,29.83,29.73,10,5,0,14,3,22,0.00,0,Fog,203
2012-1-21,62,50,39,53,35,28,90,58,38,30.09,29.98,29.86,10,9,6,10,6,17,0.00,1,,352
2012-1-22,80,62,45,61,43,17,94,62,12,29.98,29.81,29.72,10,7,2,15,6,25,0.00,5,,208
2012-1-23,66,55,44,36,34,25,68,48,29,30.16,30.04,29.97,10,10,8,8,5,,0.00,1,,40
2012-1-24,66,56,46,64,52,35,100,87,57,30.02,29.90,29.79,10,4,0,9,5,18,0.34,8,Fog-Rain-Thunderstorm,88
2012-1-25,66,56,46,64,51,43,94,88,77,29.97,29.86,29.74,10,7,2,25,12,37,0.52,8,Rain-Thunderstorm,321
2012-1-26,66,55,43,45,41,33,93,75,28,30.11,30.00,29.95,10,8,3,16,8,24,0.00,4,Rain,302
2012-1-27,55,54,37,42,38,33,89,61,31,30.11,30.02,29.91,10,10,10,17,5,26,0.00,0,,195
2012-1-28,55,48,37,37,26,21,62,44,28,30.46,30.37,30.14,10,10,10,17,11,24,0.00,0,,24
2012-1-29,61,48,34,35,28,24,70,50,30,30.50,30.41,30.32,10,10,10,7,3,,0.00,0,,139
2012-1-30,62,52,43,57,48,33,94,81,63,30.33,30.20,30.13,10,8,4,16,5,26,0.01,6,Rain,172
2012-1-31,73,65,55,57,56,53,100,82,52,30.16,30.09,30.00,10,8,2,14,7,17,0.00,4,Rain,191